createdAt,value
2023-04-17T00:00:14.095Z,15
2023-04-17T00:01:21.173Z,15
2023-04-17T00:02:28.184Z,16
2023-04-17T00:03:35.062Z,16
2023-04-17T00:04:42.107Z,15
2023-04-17T00:05:48.839Z,15
2023-04-17T00:06:55.719Z,16
2023-04-17T00:08:02.647Z,16
2023-04-17T00:09:10.013Z,16
2023-04-17T00:10:16.645Z,15
2023-04-17T00:11:23.605Z,16
2023-04-17T00:12:30.614Z,16
2023-04-17T00:13:37.535Z,15
2023-04-17T00:14:44.459Z,16
2023-04-17T00:15:51.377Z,15
2023-04-17T00:16:58.399Z,15
2023-04-17T00:18:05.482Z,15
2023-04-17T00:19:12.618Z,16
2023-04-17T00:20:19.335Z,15
2023-04-17T00:21:26.243Z,16
2023-04-17T00:22:33.127Z,15
2023-04-17T00:23:40.293Z,16
2023-04-17T00:24:47.183Z,16
2023-04-17T00:25:54.124Z,15
2023-04-17T00:27:01.061Z,17
2023-04-17T00:28:07.945Z,16
2023-04-17T00:29:14.934Z,16
2023-04-17T00:30:22.019Z,16
2023-04-17T00:31:30.853Z,16
2023-04-17T00:32:37.790Z,16
2023-04-17T00:33:44.670Z,16
2023-04-17T00:34:52.671Z,16
2023-04-17T00:35:58.526Z,16
2023-04-17T00:37:05.511Z,18
2023-04-17T00:38:13.343Z,18
2023-04-17T00:39:20.267Z,28
2023-04-17T00:40:27.199Z,39
2023-04-17T00:41:34.155Z,40
2023-04-17T00:42:41.145Z,43
2023-04-17T00:43:48.929Z,45
2023-04-17T00:44:55.928Z,38
2023-04-17T00:46:02.885Z,37
2023-04-17T00:47:09.798Z,32
2023-04-17T00:48:16.791Z,28
2023-04-17T00:49:23.754Z,21
2023-04-17T00:50:30.651Z,21
2023-04-17T00:51:37.642Z,21
2023-04-17T00:52:44.544Z,19
2023-04-17T00:53:51.522Z,20
2023-04-17T00:54:58.441Z,33
2023-04-17T00:56:06.208Z,39
2023-04-17T00:57:13.168Z,35
2023-04-17T00:58:20.042Z,29
2023-04-17T00:59:26.944Z,26
2023-04-17T01:00:34.056Z,22
2023-04-17T01:01:41.037Z,20
2023-04-17T01:02:47.891Z,18
2023-04-17T01:03:55.015Z,16
2023-04-17T01:05:01.729Z,16
2023-04-17T01:06:10.052Z,15
2023-04-17T01:07:17.036Z,15
2023-04-17T01:08:24.025Z,15
2023-04-17T01:09:30.859Z,14
2023-04-17T01:10:37.883Z,14
2023-04-17T01:11:44.799Z,14
2023-04-17T01:12:51.889Z,13
2023-04-17T01:14:03.842Z,14
2023-04-17T01:15:10.746Z,13
2023-04-17T01:16:17.691Z,14
2023-04-17T01:17:24.610Z,13
2023-04-17T01:18:31.456Z,15
2023-04-17T01:19:38.446Z,14
2023-04-17T01:20:45.611Z,14
2023-04-17T01:21:52.614Z,14
2023-04-17T01:22:59.526Z,15
2023-04-17T01:24:06.406Z,14
2023-04-17T01:25:13.360Z,15
2023-04-17T01:26:20.332Z,15
2023-04-17T01:27:27.428Z,14
2023-04-17T01:28:34.365Z,14
2023-04-17T01:29:41.347Z,15
2023-04-17T01:30:48.294Z,14
2023-04-17T01:31:55.166Z,13
2023-04-17T01:33:02.242Z,13
2023-04-17T01:34:09.091Z,13
2023-04-17T01:35:16.002Z,13
2023-04-17T01:36:23.018Z,13
2023-04-17T01:37:29.919Z,13
2023-04-17T01:38:36.891Z,14
2023-04-17T01:39:43.759Z,14
2023-04-17T01:40:50.684Z,13
2023-04-17T01:41:57.627Z,14
2023-04-17T01:43:04.582Z,14
2023-04-17T01:44:11.582Z,14
2023-04-17T01:45:18.532Z,15
2023-04-17T01:46:25.491Z,14
2023-04-17T01:47:32.470Z,13
2023-04-17T01:48:39.396Z,13
2023-04-17T01:49:46.265Z,13
2023-04-17T01:50:53.327Z,14
2023-04-17T01:52:00.216Z,14
2023-04-17T01:53:07.135Z,14
2023-04-17T01:54:14.069Z,14
2023-04-17T01:55:21.043Z,14
2023-04-17T01:56:28.025Z,13
2023-04-17T01:57:35.148Z,13
2023-04-17T01:58:42.027Z,13
2023-04-17T01:59:48.963Z,12
2023-04-17T02:00:55.896Z,13
2023-04-17T02:02:02.798Z,12
2023-04-17T02:03:09.739Z,12
2023-04-17T02:04:16.451Z,13
2023-04-17T02:05:23.100Z,12
2023-04-17T02:06:29.902Z,12
2023-04-17T02:07:36.794Z,13
2023-04-17T02:08:43.595Z,12
2023-04-17T02:09:51.230Z,13
2023-04-17T02:10:58.090Z,12
2023-04-17T02:12:04.886Z,13
2023-04-17T02:13:11.731Z,13
2023-04-17T02:14:18.564Z,13
2023-04-17T02:15:25.361Z,12
2023-04-17T02:16:32.215Z,13
2023-04-17T02:17:39.023Z,12
2023-04-17T02:18:45.760Z,12
2023-04-17T02:19:52.681Z,12
2023-04-17T02:20:59.503Z,12
2023-04-17T02:22:06.366Z,12
2023-04-17T02:23:13.218Z,12
2023-04-17T02:24:20.095Z,12
2023-04-17T02:25:27.046Z,11
2023-04-17T02:26:33.869Z,12
2023-04-17T02:27:40.773Z,12
2023-04-17T02:28:47.636Z,12
2023-04-17T02:29:54.449Z,12
2023-04-17T02:31:01.389Z,12
2023-04-17T02:32:11.062Z,13
2023-04-17T02:33:17.934Z,12
2023-04-17T02:34:24.770Z,12
2023-04-17T02:35:31.672Z,13
2023-04-17T02:36:38.507Z,12
2023-04-17T02:37:45.389Z,13
2023-04-17T02:38:52.288Z,11
2023-04-17T02:39:59.106Z,12
2023-04-17T02:41:07.953Z,12
2023-04-17T02:42:14.732Z,13
2023-04-17T02:43:21.532Z,12
2023-04-17T02:44:28.372Z,11
2023-04-17T02:45:35.187Z,13
2023-04-17T02:46:42.212Z,13
2023-04-17T02:47:48.989Z,13
2023-04-17T02:48:55.768Z,13
2023-04-17T02:50:02.611Z,12
2023-04-17T02:51:09.798Z,12
2023-04-17T02:52:16.673Z,12
2023-04-17T02:53:23.480Z,12
2023-04-17T02:54:30.261Z,13
2023-04-17T02:55:37.168Z,13
2023-04-17T02:56:45.859Z,12
2023-04-17T02:57:52.742Z,13
2023-04-17T02:58:59.698Z,12
2023-04-17T03:00:06.582Z,13
2023-04-17T03:01:13.740Z,13
2023-04-17T03:02:20.689Z,14
2023-04-17T03:03:27.496Z,14
2023-04-17T03:04:34.186Z,13
2023-04-17T03:05:40.984Z,12
2023-04-17T03:06:47.822Z,13
2023-04-17T03:07:54.703Z,15
2023-04-17T03:09:01.571Z,14
2023-04-17T03:10:08.383Z,13
2023-04-17T03:11:15.213Z,14
2023-04-17T03:12:22.049Z,13
2023-04-17T03:13:29.149Z,12
2023-04-17T03:14:36.031Z,14
2023-04-17T03:15:42.867Z,13
2023-04-17T03:16:49.787Z,13
2023-04-17T03:17:56.528Z,13
2023-04-17T03:19:03.388Z,13
2023-04-17T03:20:10.296Z,14
2023-04-17T03:21:17.136Z,13
2023-04-17T03:22:23.997Z,14
2023-04-17T03:23:30.801Z,14
2023-04-17T03:24:37.642Z,12
2023-04-17T03:25:44.549Z,13
2023-04-17T03:26:51.350Z,14
2023-04-17T03:27:58.192Z,14
2023-04-17T03:29:04.985Z,14
2023-04-17T03:30:11.805Z,13
2023-04-17T03:31:18.744Z,15
2023-04-17T03:32:25.568Z,14
2023-04-17T03:33:34.386Z,14
2023-04-17T03:34:41.209Z,14
2023-04-17T03:35:48.057Z,15
2023-04-17T03:36:54.897Z,14
2023-04-17T03:38:01.743Z,14
2023-04-17T03:39:08.573Z,15
2023-04-17T03:40:15.438Z,14
2023-04-17T03:41:22.260Z,15
2023-04-17T03:42:29.061Z,15
2023-04-17T03:43:35.978Z,15
2023-04-17T03:44:42.769Z,15
2023-04-17T03:45:49.623Z,14
2023-04-17T03:46:56.417Z,15
2023-04-17T03:48:03.473Z,15
2023-04-17T03:49:10.514Z,15
2023-04-17T03:50:17.878Z,14
2023-04-17T03:51:24.734Z,15
2023-04-17T03:52:31.630Z,15
2023-04-17T03:53:38.477Z,15
2023-04-17T03:54:45.408Z,14
2023-04-17T03:55:52.262Z,15
2023-04-17T03:57:00.294Z,15
2023-04-17T03:58:07.268Z,15
2023-04-17T03:59:14.125Z,14
2023-04-17T04:00:20.894Z,16
2023-04-17T04:01:27.761Z,15
2023-04-17T04:02:34.800Z,14
2023-04-17T04:03:41.662Z,14
2023-04-17T04:04:48.704Z,15
2023-04-17T04:05:55.262Z,15
2023-04-17T04:07:03.161Z,14
2023-04-17T04:08:10.073Z,15
2023-04-17T04:09:16.917Z,15
2023-04-17T04:10:23.716Z,15
2023-04-17T04:11:30.580Z,14
2023-04-17T04:12:37.406Z,13
2023-04-17T04:13:44.272Z,14
2023-04-17T04:14:51.073Z,14
2023-04-17T04:15:57.876Z,14
2023-04-17T04:17:04.677Z,15
2023-04-17T04:18:11.507Z,13
2023-04-17T04:19:18.336Z,15
2023-04-17T04:20:25.209Z,15
2023-04-17T04:21:32.007Z,15
2023-04-17T04:22:38.775Z,15
2023-04-17T04:23:45.622Z,15
2023-04-17T04:24:52.519Z,14
2023-04-17T04:25:59.363Z,16
2023-04-17T04:27:06.195Z,15
2023-04-17T04:28:12.953Z,15
2023-04-17T04:29:19.795Z,15
2023-04-17T04:30:26.730Z,15
2023-04-17T04:31:33.548Z,15
2023-04-17T04:32:40.460Z,15
2023-04-17T04:33:47.218Z,15
2023-04-17T04:34:54.121Z,15
2023-04-17T04:36:01.456Z,14
2023-04-17T04:37:08.164Z,15
2023-04-17T04:38:18.001Z,14
2023-04-17T04:39:24.855Z,15
2023-04-17T04:40:31.640Z,16
2023-04-17T04:41:38.486Z,15
2023-04-17T04:42:45.490Z,15
2023-04-17T04:43:52.401Z,15
2023-04-17T04:44:59.236Z,14
2023-04-17T04:46:06.175Z,14
2023-04-17T04:47:12.953Z,15
2023-04-17T04:48:19.820Z,15
2023-04-17T04:49:26.799Z,14
2023-04-17T04:50:33.630Z,15
2023-04-17T04:51:40.433Z,15
2023-04-17T04:52:47.294Z,14
2023-04-17T04:53:54.151Z,14
2023-04-17T04:55:01.146Z,14
2023-04-17T04:56:08.216Z,14
2023-04-17T04:57:17.754Z,14
2023-04-17T04:58:24.752Z,14
2023-04-17T04:59:31.598Z,15
2023-04-17T05:00:38.482Z,15
2023-04-17T05:01:45.479Z,14
2023-04-17T05:02:52.391Z,14
2023-04-17T05:03:59.315Z,14
2023-04-17T05:05:08.738Z,16
2023-04-17T05:06:15.508Z,15
2023-04-17T05:07:22.375Z,15
2023-04-17T05:08:29.161Z,16
2023-04-17T05:09:36.106Z,15
2023-04-17T05:10:48.129Z,15
2023-04-17T05:11:55.069Z,14
2023-04-17T05:13:01.921Z,15
2023-04-17T05:14:08.697Z,14
2023-04-17T05:15:15.548Z,14
2023-04-17T05:16:22.407Z,15
2023-04-17T05:17:29.180Z,15
2023-04-17T05:18:35.967Z,15
2023-04-17T05:19:42.794Z,15
2023-04-17T05:20:50.135Z,14
2023-04-17T05:21:57.161Z,15
2023-04-17T05:23:04.195Z,15
2023-04-17T05:24:10.965Z,15
2023-04-17T05:25:17.806Z,16
2023-04-17T05:26:24.619Z,15
2023-04-17T05:27:31.454Z,15
2023-04-17T05:28:38.278Z,16
2023-04-17T05:29:45.166Z,16
2023-04-17T05:30:51.946Z,18
2023-04-17T05:31:58.879Z,17
2023-04-17T05:33:05.639Z,17
2023-04-17T05:34:12.436Z,15
2023-04-17T05:35:19.250Z,17
2023-04-17T05:36:26.067Z,16
2023-04-17T05:37:32.846Z,17
2023-04-17T05:38:39.704Z,17
2023-04-17T05:39:46.592Z,16
2023-04-17T05:40:53.424Z,16
2023-04-17T05:42:00.189Z,16
2023-04-17T05:43:06.977Z,15
2023-04-17T05:44:13.835Z,15
2023-04-17T05:45:25.002Z,16
2023-04-17T05:46:29.675Z,15
2023-04-17T05:47:36.557Z,17
2023-04-17T05:48:43.440Z,17
2023-04-17T05:49:50.307Z,18
2023-04-17T05:50:57.140Z,18
2023-04-17T05:52:03.992Z,17
2023-04-17T05:53:10.851Z,17
2023-04-17T05:54:17.742Z,19
2023-04-17T05:55:24.555Z,19
2023-04-17T05:56:31.397Z,18
2023-04-17T05:57:38.274Z,18
2023-04-17T05:58:45.087Z,19
2023-04-17T05:59:51.873Z,19
2023-04-17T06:00:58.694Z,17
2023-04-17T06:02:05.691Z,18
2023-04-17T06:03:12.554Z,18
2023-04-17T06:04:19.448Z,17
2023-04-17T06:05:26.245Z,17
2023-04-17T06:06:33.048Z,17
2023-04-17T06:07:39.870Z,17
2023-04-17T06:08:46.644Z,18
2023-04-17T06:09:53.617Z,19
2023-04-17T06:11:01.479Z,17
2023-04-17T06:12:08.279Z,18
2023-04-17T06:13:15.450Z,18
2023-04-17T06:14:22.374Z,19
2023-04-17T06:15:29.345Z,19
2023-04-17T06:16:36.154Z,18
2023-04-17T06:17:42.995Z,19
2023-04-17T06:18:49.873Z,18
2023-04-17T06:19:56.779Z,20
2023-04-17T06:21:03.610Z,20
2023-04-17T06:22:10.436Z,19
2023-04-17T06:23:17.285Z,20
2023-04-17T06:24:24.203Z,20
2023-04-17T06:25:31.067Z,20
2023-04-17T06:26:37.836Z,21
2023-04-17T06:27:44.629Z,21
2023-04-17T06:28:51.476Z,19
2023-04-17T06:29:58.303Z,19
2023-04-17T06:31:05.298Z,21
2023-04-17T06:32:11.992Z,21
2023-04-17T06:33:18.773Z,20
2023-04-17T06:34:25.668Z,20
2023-04-17T06:35:32.485Z,19
2023-04-17T06:36:39.300Z,22
2023-04-17T06:37:46.096Z,20
2023-04-17T06:38:52.922Z,21
2023-04-17T06:40:01.897Z,23
2023-04-17T06:41:10.378Z,22
2023-04-17T06:42:19.171Z,20
2023-04-17T06:43:28.547Z,23
2023-04-17T06:44:38.012Z,22
2023-04-17T06:45:44.925Z,22
2023-04-17T06:46:51.913Z,23
2023-04-17T06:47:58.883Z,24
2023-04-17T06:49:05.861Z,22
2023-04-17T06:50:13.225Z,25
2023-04-17T06:51:20.209Z,24
2023-04-17T06:52:27.080Z,23
2023-04-17T06:53:37.685Z,23
2023-04-17T06:54:45.360Z,25
2023-04-17T06:55:52.240Z,24
2023-04-17T06:57:02.017Z,23
2023-04-17T06:58:13.194Z,23
2023-04-17T06:59:21.754Z,24
2023-04-17T07:00:32.196Z,24
2023-04-17T07:01:39.117Z,23
2023-04-17T07:02:46.248Z,24
2023-04-17T07:03:54.579Z,24
2023-04-17T07:05:01.605Z,24
2023-04-17T07:06:10.842Z,26
2023-04-17T07:07:18.262Z,24
2023-04-17T07:08:25.250Z,26
2023-04-17T07:09:33.289Z,24
2023-04-17T07:10:42.547Z,25
2023-04-17T07:11:49.580Z,26
2023-04-17T07:12:56.380Z,26
2023-04-17T07:14:03.171Z,26
2023-04-17T07:15:10.025Z,26
2023-04-17T07:16:16.968Z,27
2023-04-17T07:17:23.896Z,27
2023-04-17T07:18:30.790Z,26
2023-04-17T07:19:38.005Z,27
2023-04-17T07:20:46.238Z,25
2023-04-17T07:21:55.177Z,25
2023-04-17T07:23:03.964Z,26
2023-04-17T07:24:12.434Z,26
2023-04-17T07:25:21.133Z,27
2023-04-17T07:26:29.492Z,27
2023-04-17T07:27:37.883Z,28
2023-04-17T07:28:46.428Z,26
2023-04-17T07:29:56.198Z,26
2023-04-17T07:31:05.314Z,25
2023-04-17T07:32:16.119Z,25
2023-04-17T07:33:25.524Z,28
2023-04-17T07:34:35.854Z,26
2023-04-17T07:35:44.650Z,27
2023-04-17T07:36:53.232Z,25
2023-04-17T07:38:00.219Z,26
2023-04-17T07:39:07.146Z,27
2023-04-17T07:40:13.990Z,27
2023-04-17T07:41:21.259Z,26
2023-04-17T07:42:38.521Z,25
2023-04-17T07:44:05.265Z,25
2023-04-17T07:45:16.774Z,26
2023-04-17T07:46:41.950Z,26
2023-04-17T07:48:10.128Z,25
2023-04-17T07:49:37.656Z,26
2023-04-17T07:51:12.067Z,24
2023-04-17T07:52:56.773Z,26
2023-04-17T07:54:24.205Z,25
2023-04-17T07:55:51.769Z,25
2023-04-17T07:57:25.179Z,24
2023-04-17T07:58:32.033Z,26
2023-04-17T07:59:38.808Z,26
2023-04-17T08:00:48.979Z,26
2023-04-17T08:02:08.885Z,25
2023-04-17T08:03:18.725Z,26
2023-04-17T08:04:29.584Z,25
2023-04-17T08:05:40.183Z,26
2023-04-17T08:06:51.849Z,25
2023-04-17T08:08:02.297Z,25
2023-04-17T08:09:17.932Z,24
2023-04-17T08:10:30.601Z,24
2023-04-17T08:11:56.752Z,26
2023-04-17T08:13:02.341Z,24
2023-04-17T08:14:18.350Z,24
2023-04-17T08:15:44.548Z,26
2023-04-17T08:16:56.921Z,27
2023-04-17T08:18:09.633Z,24
2023-04-17T08:19:24.135Z,26
2023-04-17T08:20:38.069Z,26
2023-04-17T08:21:46.683Z,24
2023-04-17T08:23:02.789Z,25
2023-04-17T08:24:19.643Z,25
2023-04-17T08:25:27.613Z,26
2023-04-17T08:26:37.025Z,23
2023-04-17T08:27:47.068Z,25
2023-04-17T08:28:54.192Z,27
2023-04-17T08:30:05.345Z,25
2023-04-17T08:31:14.059Z,25
2023-04-17T08:32:24.169Z,26
2023-04-17T08:33:34.329Z,26
2023-04-17T08:34:49.607Z,26
2023-04-17T08:36:00.249Z,26
2023-04-17T08:37:05.942Z,27
2023-04-17T08:38:12.805Z,28
2023-04-17T08:39:19.651Z,26
2023-04-17T08:40:27.809Z,24
2023-04-17T08:41:35.881Z,25
2023-04-17T08:42:43.012Z,28
2023-04-17T08:43:49.986Z,26
2023-04-17T08:44:57.038Z,26
2023-04-17T08:46:03.945Z,27
2023-04-17T08:47:10.961Z,29
2023-04-17T08:48:17.854Z,26
2023-04-17T08:49:24.703Z,26
2023-04-17T08:50:31.434Z,27
2023-04-17T08:51:38.301Z,27
2023-04-17T08:52:45.209Z,26
2023-04-17T08:53:52.142Z,25
2023-04-17T08:54:59.191Z,25
2023-04-17T08:56:10.424Z,25
2023-04-17T08:57:17.387Z,26
2023-04-17T08:58:24.563Z,26
2023-04-17T08:59:31.400Z,24
2023-04-17T09:00:38.375Z,24
2023-04-17T09:01:45.321Z,24
2023-04-17T09:03:02.656Z,25
2023-04-17T09:04:09.717Z,26
2023-04-17T09:05:16.150Z,22
2023-04-17T09:06:22.989Z,24
2023-04-17T09:07:30.716Z,24
2023-04-17T09:08:37.728Z,25
2023-04-17T09:09:54.775Z,24
2023-04-17T09:11:01.652Z,26
2023-04-17T09:12:09.380Z,23
2023-04-17T09:13:16.477Z,22
2023-04-17T09:14:26.714Z,25
2023-04-17T09:15:35.172Z,25
2023-04-17T09:16:42.311Z,24
2023-04-17T09:17:57.505Z,22
2023-04-17T09:19:04.692Z,24
2023-04-17T09:20:11.531Z,22
2023-04-17T09:21:18.474Z,25
2023-04-17T09:22:25.357Z,22
2023-04-17T09:23:35.457Z,25
2023-04-17T09:24:52.528Z,23
2023-04-17T09:25:59.409Z,22
2023-04-17T09:27:12.417Z,22
2023-04-17T09:28:27.302Z,24
2023-04-17T09:29:34.807Z,23
2023-04-17T09:30:41.873Z,21
2023-04-17T09:31:48.835Z,23
2023-04-17T09:32:55.814Z,22
2023-04-17T09:34:02.835Z,21
2023-04-17T09:35:09.764Z,22
2023-04-17T09:36:16.793Z,22
2023-04-17T09:37:23.718Z,23
2023-04-17T09:38:32.108Z,23
2023-04-17T09:39:39.072Z,21
2023-04-17T09:40:56.155Z,21
2023-04-17T09:42:03.693Z,24
2023-04-17T09:43:10.268Z,25
2023-04-17T09:44:16.738Z,22
2023-04-17T09:45:28.596Z,21
2023-04-17T09:46:40.518Z,24
2023-04-17T09:47:50.234Z,24
2023-04-17T09:48:57.078Z,23
2023-04-17T09:50:14.176Z,21
2023-04-17T09:51:21.194Z,23
2023-04-17T09:52:28.106Z,22
2023-04-17T09:53:35.079Z,19
2023-04-17T09:54:41.908Z,19
2023-04-17T09:55:48.762Z,19
2023-04-17T09:56:55.598Z,19
2023-04-17T09:58:05.562Z,19
2023-04-17T09:59:12.549Z,20
2023-04-17T10:00:19.377Z,19
2023-04-17T10:01:26.336Z,19
2023-04-17T10:02:33.335Z,19
2023-04-17T10:03:40.168Z,20
2023-04-17T10:04:46.814Z,18
2023-04-17T10:05:53.861Z,19
2023-04-17T10:07:00.771Z,21
2023-04-17T10:08:07.693Z,19
2023-04-17T10:09:14.682Z,18
2023-04-17T10:10:21.699Z,21
2023-04-17T10:11:31.339Z,18
2023-04-17T10:12:38.333Z,20
2023-04-17T10:13:45.182Z,19
2023-04-17T10:14:52.014Z,19
2023-04-17T10:15:58.867Z,18
2023-04-17T10:17:05.733Z,20
2023-04-17T10:18:22.768Z,18
2023-04-17T10:19:29.645Z,16
2023-04-17T10:20:36.521Z,19
2023-04-17T10:21:47.569Z,17
2023-04-17T10:23:06.189Z,18
2023-04-17T10:24:23.249Z,18
2023-04-17T10:25:30.087Z,16
2023-04-17T10:26:36.980Z,18
2023-04-17T10:27:44.450Z,19
2023-04-17T10:29:00.121Z,18
2023-04-17T10:30:06.864Z,17
2023-04-17T10:31:14.179Z,19
2023-04-17T10:32:21.249Z,20
2023-04-17T10:33:27.922Z,18
2023-04-17T10:34:34.747Z,17
2023-04-17T10:35:41.592Z,18
2023-04-17T10:36:48.486Z,18
2023-04-17T10:37:55.379Z,18
2023-04-17T10:39:05.130Z,18
2023-04-17T10:40:14.814Z,17
2023-04-17T10:41:29.024Z,17
2023-04-17T10:42:35.868Z,17
2023-04-17T10:43:42.733Z,16
2023-04-17T10:44:49.663Z,16
2023-04-17T10:45:56.590Z,16
2023-04-17T10:47:08.423Z,14
2023-04-17T10:48:17.907Z,15
2023-04-17T10:49:27.148Z,15
2023-04-17T10:50:34.991Z,14
2023-04-17T10:51:41.889Z,15
2023-04-17T10:52:48.921Z,14
2023-04-17T10:53:55.978Z,15
2023-04-17T10:55:02.945Z,13
2023-04-17T10:56:17.565Z,14
2023-04-17T10:57:29.443Z,14
2023-04-17T10:58:46.472Z,13
2023-04-17T11:00:01.152Z,14
2023-04-17T11:01:15.816Z,14
2023-04-17T11:02:22.747Z,14
2023-04-17T11:03:29.582Z,14
2023-04-17T11:04:36.565Z,13
2023-04-17T11:05:43.350Z,14
2023-04-17T11:06:50.278Z,12
2023-04-17T11:07:57.131Z,12
2023-04-17T11:09:04.073Z,12
2023-04-17T11:10:10.987Z,14
2023-04-17T11:11:20.972Z,13
2023-04-17T11:12:24.716Z,13
2023-04-17T11:13:31.518Z,13
2023-04-17T11:14:38.368Z,13
2023-04-17T11:15:46.858Z,14
2023-04-17T11:16:55.334Z,14
2023-04-17T11:18:04.356Z,13
2023-04-17T11:19:12.394Z,13
2023-04-17T11:20:21.754Z,12
2023-04-17T11:21:31.519Z,13
2023-04-17T11:22:46.119Z,13
2023-04-17T11:23:53.007Z,13
2023-04-17T11:24:59.920Z,13
2023-04-17T11:26:06.860Z,13
2023-04-17T11:27:13.752Z,13
2023-04-17T11:28:20.591Z,13
2023-04-17T11:29:27.447Z,13
2023-04-17T11:30:34.268Z,12
2023-04-17T11:31:41.087Z,12
2023-04-17T11:32:47.920Z,12
2023-04-17T11:33:54.633Z,12
2023-04-17T11:35:01.516Z,12
2023-04-17T11:36:08.451Z,12
2023-04-17T11:37:15.290Z,11
2023-04-17T11:38:22.231Z,12
2023-04-17T11:39:28.938Z,12
2023-04-17T11:40:35.768Z,11
2023-04-17T11:41:45.463Z,11
2023-04-17T11:42:52.508Z,11
2023-04-17T11:43:59.401Z,12
2023-04-17T11:45:06.286Z,11
2023-04-17T11:46:13.408Z,12
2023-04-17T11:47:20.186Z,12
2023-04-17T11:48:27.044Z,13
2023-04-17T11:49:33.842Z,12
2023-04-17T11:50:40.762Z,11
2023-04-17T11:51:47.591Z,13
2023-04-17T11:52:54.434Z,12
2023-04-17T11:54:01.263Z,12
2023-04-17T11:55:08.206Z,11
2023-04-17T11:56:15.247Z,12
2023-04-17T11:57:21.970Z,12
2023-04-17T11:58:30.151Z,11
2023-04-17T11:59:35.577Z,11
2023-04-17T12:00:42.398Z,12
2023-04-17T12:01:49.301Z,13
2023-04-17T12:02:56.352Z,12
2023-04-17T12:04:03.228Z,12
2023-04-17T12:05:13.114Z,13
2023-04-17T12:06:19.710Z,14
2023-04-17T12:07:26.544Z,12
2023-04-17T12:08:33.424Z,12
2023-04-17T12:09:48.061Z,12
2023-04-17T12:11:00.865Z,13
2023-04-17T12:12:08.191Z,12
2023-04-17T12:13:14.695Z,11
2023-04-17T12:14:21.590Z,10
2023-04-17T12:15:28.370Z,10
2023-04-17T12:16:35.207Z,10
2023-04-17T12:17:42.018Z,10
2023-04-17T12:18:48.818Z,10
2023-04-17T12:19:55.751Z,9
2023-04-17T12:21:02.609Z,9
2023-04-17T12:22:09.499Z,10
2023-04-17T12:23:16.325Z,9
2023-04-17T12:24:23.270Z,12
2023-04-17T12:25:33.420Z,12
2023-04-17T12:26:40.613Z,11
2023-04-17T12:27:50.489Z,11
2023-04-17T12:28:57.385Z,11
2023-04-17T12:30:04.284Z,11
2023-04-17T12:31:11.437Z,10
2023-04-17T12:32:18.133Z,10
2023-04-17T12:33:25.102Z,9
2023-04-17T12:34:31.848Z,10
2023-04-17T12:35:38.608Z,9
2023-04-17T12:36:45.378Z,10
2023-04-17T12:37:54.375Z,9
2023-04-17T12:39:01.136Z,11
2023-04-17T12:40:08.077Z,10
2023-04-17T12:41:15.010Z,10
2023-04-17T12:42:21.857Z,10
2023-04-17T12:43:28.696Z,9
2023-04-17T12:44:35.460Z,9
2023-04-17T12:45:42.628Z,8
2023-04-17T12:46:49.364Z,8
2023-04-17T12:47:56.150Z,9
2023-04-17T12:49:02.991Z,9
2023-04-17T12:50:09.783Z,8
2023-04-17T12:51:16.719Z,8
2023-04-17T12:52:24.714Z,8
2023-04-17T12:53:31.134Z,9
2023-04-17T12:54:38.049Z,8
2023-04-17T12:55:44.892Z,8
2023-04-17T12:56:51.792Z,8
2023-04-17T12:57:58.630Z,8
2023-04-17T12:59:05.465Z,7
2023-04-17T13:00:12.336Z,8
2023-04-17T13:01:19.403Z,8
2023-04-17T13:02:26.276Z,8
2023-04-17T13:03:33.244Z,7
2023-04-17T13:04:40.208Z,9
2023-04-17T13:05:46.946Z,9
2023-04-17T13:06:53.802Z,9
2023-04-17T13:08:00.626Z,8
2023-04-17T13:09:07.567Z,8
2023-04-17T13:10:14.374Z,8
2023-04-17T13:11:21.322Z,7
2023-04-17T13:12:28.242Z,7
2023-04-17T13:13:35.056Z,7
2023-04-17T13:14:42.132Z,6
2023-04-17T13:15:49.801Z,6
2023-04-17T13:16:56.790Z,6
2023-04-17T13:18:03.678Z,7
2023-04-17T13:19:10.682Z,7
2023-04-17T13:20:17.380Z,6
2023-04-17T13:21:24.311Z,7
2023-04-17T13:22:31.117Z,7
2023-04-17T13:23:37.990Z,7
2023-04-17T13:24:44.811Z,7
2023-04-17T13:25:51.629Z,7
2023-04-17T13:26:58.525Z,8
2023-04-17T13:28:05.408Z,8
2023-04-17T13:29:12.568Z,8
2023-04-17T13:30:19.165Z,9
2023-04-17T13:31:28.531Z,8
2023-04-17T13:32:35.309Z,9
2023-04-17T13:33:42.221Z,8
2023-04-17T13:34:53.771Z,9
2023-04-17T13:36:00.750Z,9
2023-04-17T13:37:07.932Z,9
2023-04-17T13:38:14.775Z,9
2023-04-17T13:39:21.690Z,9
2023-04-17T13:40:30.463Z,9
2023-04-17T13:41:37.531Z,9
2023-04-17T13:42:44.555Z,8
2023-04-17T13:43:56.178Z,8
2023-04-17T13:45:03.206Z,8
2023-04-17T13:46:10.643Z,8
2023-04-17T13:47:17.430Z,9
2023-04-17T13:48:24.370Z,9
2023-04-17T13:49:31.332Z,8
2023-04-17T13:50:38.507Z,9
2023-04-17T13:51:45.544Z,9
2023-04-17T13:52:52.631Z,10
2023-04-17T13:54:01.213Z,9
2023-04-17T13:55:08.242Z,8
2023-04-17T13:56:15.234Z,8
2023-04-17T13:57:22.282Z,9
2023-04-17T13:58:30.198Z,8
2023-04-17T13:59:37.298Z,8
2023-04-17T14:00:44.295Z,8
2023-04-17T14:01:51.528Z,7
2023-04-17T14:03:00.052Z,7
2023-04-17T14:04:07.253Z,8
2023-04-17T14:05:14.182Z,8
2023-04-17T14:06:21.274Z,8
2023-04-17T14:07:28.314Z,8
2023-04-17T14:08:35.385Z,8
2023-04-17T14:09:46.001Z,8
2023-04-17T14:10:53.035Z,8
2023-04-17T14:12:00.021Z,8
2023-04-17T14:13:12.401Z,8
2023-04-17T14:14:19.583Z,9
2023-04-17T14:15:27.137Z,9
2023-04-17T14:16:34.311Z,8
2023-04-17T14:17:41.285Z,9
2023-04-17T14:18:48.191Z,9
2023-04-17T14:19:55.266Z,8
2023-04-17T14:21:02.351Z,9
2023-04-17T14:22:09.866Z,9
2023-04-17T14:23:20.251Z,10
2023-04-17T14:24:30.606Z,11
2023-04-17T14:25:37.677Z,10
2023-04-17T14:26:44.974Z,10
2023-04-17T14:27:51.960Z,10
2023-04-17T14:28:59.051Z,11
2023-04-17T14:30:06.247Z,10
2023-04-17T14:31:13.304Z,10
2023-04-17T14:32:21.387Z,10
2023-04-17T14:33:28.556Z,9
2023-04-17T14:34:35.539Z,9
2023-04-17T14:35:42.674Z,9
2023-04-17T14:36:49.691Z,9
2023-04-17T14:37:59.626Z,9
2023-04-17T14:39:06.590Z,8
2023-04-17T14:40:14.328Z,8
2023-04-17T14:41:21.383Z,9
2023-04-17T14:42:28.457Z,8
2023-04-17T14:43:36.134Z,9
2023-04-17T14:44:43.125Z,9
2023-04-17T14:45:51.062Z,9
2023-04-17T14:46:58.110Z,10
2023-04-17T14:48:09.270Z,9
2023-04-17T14:49:16.388Z,10
2023-04-17T14:50:23.542Z,9
2023-04-17T14:51:30.920Z,9
2023-04-17T14:52:37.868Z,9
2023-04-17T14:53:44.922Z,10
2023-04-17T14:54:52.814Z,9
2023-04-17T14:56:00.401Z,9
2023-04-17T14:57:11.692Z,10
2023-04-17T14:58:18.673Z,10
2023-04-17T14:59:25.751Z,9
2023-04-17T15:00:32.855Z,10
2023-04-17T15:01:39.763Z,10
2023-04-17T15:02:47.050Z,10
2023-04-17T15:03:54.226Z,10
2023-04-17T15:05:01.120Z,9
2023-04-17T15:06:09.362Z,10
2023-04-17T15:07:16.421Z,10
2023-04-17T15:08:23.496Z,10
2023-04-17T15:09:30.595Z,11
2023-04-17T15:10:48.270Z,10
2023-04-17T15:11:44.514Z,10
2023-04-17T15:12:56.738Z,10
2023-04-17T15:14:03.774Z,9
2023-04-17T15:15:11.035Z,10
2023-04-17T15:16:18.153Z,9
2023-04-17T15:17:25.038Z,9
2023-04-17T15:18:34.752Z,9
2023-04-17T15:19:43.697Z,9
2023-04-17T15:20:53.522Z,9
2023-04-17T15:22:00.503Z,9
2023-04-17T15:23:07.519Z,9
2023-04-17T15:24:17.261Z,9
2023-04-17T15:25:24.162Z,10
2023-04-17T15:26:31.269Z,10
2023-04-17T15:27:38.402Z,10
2023-04-17T15:28:45.393Z,10
2023-04-17T15:29:52.387Z,10
2023-04-17T15:30:59.510Z,10
2023-04-17T15:32:06.783Z,12
2023-04-17T15:33:13.869Z,12
2023-04-17T15:34:20.880Z,11
2023-04-17T15:35:27.756Z,11
2023-04-17T15:36:37.090Z,12
2023-04-17T15:37:48.491Z,11
2023-04-17T15:38:56.317Z,10
2023-04-17T15:40:03.549Z,10
2023-04-17T15:41:17.035Z,11
2023-04-17T15:42:24.092Z,10
2023-04-17T15:43:31.163Z,11
2023-04-17T15:44:40.807Z,11
2023-04-17T15:45:47.738Z,10
2023-04-17T15:46:55.065Z,10
2023-04-17T15:48:02.209Z,11
2023-04-17T15:49:09.474Z,12
2023-04-17T15:50:16.034Z,10
2023-04-17T15:51:23.839Z,10
2023-04-17T15:52:30.848Z,9
2023-04-17T15:53:37.754Z,10
2023-04-17T15:54:44.724Z,9
2023-04-17T15:55:51.762Z,9
2023-04-17T15:57:03.577Z,10
2023-04-17T15:58:10.634Z,10
2023-04-17T15:59:18.630Z,10
2023-04-17T16:00:25.602Z,10
2023-04-17T16:01:32.749Z,9
2023-04-17T16:02:39.787Z,10
2023-04-17T16:03:50.158Z,10
2023-04-17T16:04:57.033Z,10
2023-04-17T16:06:04.215Z,9
2023-04-17T16:07:15.111Z,10
2023-04-17T16:08:25.316Z,11
2023-04-17T16:09:32.226Z,12
2023-04-17T16:10:39.255Z,9
2023-04-17T16:11:46.388Z,8
2023-04-17T16:12:53.419Z,7
2023-04-17T16:14:00.325Z,6